Weather at Gerald R. Ford International Airport

Public forecast

Using degrees Fahrenheit for public forecast. Weather courtesy of forecast.io.

Current aviation weather report (METAR) for Gerald R. Ford International Airport

Retrieved 2022/06/27 22:53 UTC (40 minutes ago):

KGRR 272253Z 30012G22KT 10SM FEW055 21/05 A3019 RMK AO2 SLP222 T02110050

Aviation forecast (TAF) for Gerald R. Ford International Airport

Retrieved 2022/06/27 18:22 UTC (5 hours ago):

TAF KGRR 271720Z 2718/2818 30015G27KT P6SM FEW060 FEW200 FM272300 31009KT P6SM SKC FM280300 00000KT P6SM SKC